createdAt,value
2018-12-16T00:02:08.606Z,-17.79
2018-12-16T00:04:38.093Z,-17.79
2018-12-16T00:07:07.389Z,-17.79
2018-12-16T00:09:36.585Z,-17.81
2018-12-16T00:12:05.655Z,-17.82
2018-12-16T00:14:34.371Z,-17.85
2018-12-16T00:17:03.193Z,-17.88
2018-12-16T00:19:32.120Z,-17.90
2018-12-16T00:22:00.798Z,-17.95
2018-12-16T00:24:29.448Z,-17.97
2018-12-16T00:27:09.390Z,-17.98
2018-12-16T00:29:38.274Z,-17.98
2018-12-16T00:32:07.086Z,-17.98
2018-12-16T00:34:36.325Z,-17.98
2018-12-16T00:37:05.359Z,-17.98
2018-12-16T00:39:34.081Z,-18.01
2018-12-16T00:42:02.968Z,-18.01
2018-12-16T00:44:31.728Z,-18.01
2018-12-16T00:47:00.599Z,-18.04
2018-12-16T00:49:29.415Z,-18.05
2018-12-16T00:51:58.706Z,-18.04
2018-12-16T00:54:28.358Z,-18.06
2018-12-16T00:56:57.738Z,-18.05
2018-12-16T00:59:26.826Z,-18.06
2018-12-16T01:01:55.597Z,-18.05
2018-12-16T01:04:24.541Z,-17.99
2018-12-16T01:06:53.196Z,-17.88
2018-12-16T01:09:22.111Z,-17.77
2018-12-16T01:11:50.754Z,-17.65
2018-12-16T01:14:19.560Z,-17.52
2018-12-16T01:16:48.538Z,-17.73
2018-12-16T01:19:17.234Z,-17.50
2018-12-16T01:21:46.214Z,-17.60
2018-12-16T01:24:14.991Z,-17.64
2018-12-16T01:26:43.941Z,-17.51
2018-12-16T01:29:12.622Z,-17.30
2018-12-16T01:31:41.794Z,-17.13
2018-12-16T01:34:10.510Z,-17.00
2018-12-16T01:36:39.779Z,-16.94
2018-12-16T01:39:08.601Z,-16.93
2018-12-16T01:41:37.609Z,-16.81
2018-12-16T01:44:06.345Z,-16.87
2018-12-16T01:46:35.162Z,-16.81
2018-12-16T01:49:04.981Z,-16.65
2018-12-16T01:51:33.966Z,-16.54
2018-12-16T01:54:02.632Z,-16.53
2018-12-16T01:56:31.445Z,-16.48
2018-12-16T01:59:00.257Z,-16.52
2018-12-16T02:01:29.127Z,-16.60
2018-12-16T02:03:58.153Z,-16.59
2018-12-16T02:06:26.978Z,-16.69
2018-12-16T02:08:56.301Z,-16.73
2018-12-16T02:11:25.103Z,-16.79
2018-12-16T02:13:54.035Z,-16.81
2018-12-16T02:16:22.715Z,-16.82
2018-12-16T02:18:51.470Z,-16.84
2018-12-16T02:21:20.505Z,-16.83
2018-12-16T02:23:49.155Z,-16.86
2018-12-16T02:26:18.131Z,-16.88
2018-12-16T02:28:47.055Z,-16.88
2018-12-16T02:31:15.737Z,-16.84
2018-12-16T02:33:44.399Z,-16.84
2018-12-16T02:36:13.135Z,-16.85
2018-12-16T02:38:42.661Z,-16.90
2018-12-16T02:41:11.405Z,-16.91
2018-12-16T02:43:40.212Z,-16.94
2018-12-16T02:46:09.763Z,-16.96
2018-12-16T02:48:38.900Z,-16.96
2018-12-16T02:51:07.889Z,-16.96
2018-12-16T02:53:36.514Z,-16.95
2018-12-16T02:56:05.521Z,-16.95
2018-12-16T02:58:34.427Z,-16.95
2018-12-16T03:01:03.626Z,-16.95
2018-12-16T03:03:32.373Z,-16.95
2018-12-16T03:06:01.457Z,-17.26
2018-12-16T03:08:30.260Z,-16.89
2018-12-16T03:10:59.182Z,-16.89
2018-12-16T03:13:27.823Z,-16.87
2018-12-16T03:15:56.712Z,-16.84
2018-12-16T03:18:25.403Z,-16.86
2018-12-16T03:20:54.136Z,-16.85
2018-12-16T03:23:22.986Z,-16.87
2018-12-16T03:25:51.748Z,-16.89
2018-12-16T03:28:20.613Z,-16.92
2018-12-16T03:30:49.218Z,-16.93
2018-12-16T03:33:17.901Z,-16.89
2018-12-16T03:35:46.623Z,-16.79
2018-12-16T03:38:15.396Z,-16.64
2018-12-16T03:40:44.035Z,-16.48
2018-12-16T03:43:12.747Z,-16.34
2018-12-16T03:45:41.697Z,-16.21
2018-12-16T03:48:10.578Z,-16.01
2018-12-16T03:50:39.405Z,-15.82
2018-12-16T03:53:08.226Z,-15.63
2018-12-16T03:55:37.142Z,-15.47
2018-12-16T03:58:05.883Z,-15.28
2018-12-16T04:00:34.603Z,-15.18
2018-12-16T04:03:03.211Z,-15.11
2018-12-16T04:05:31.847Z,-14.99
2018-12-16T04:08:00.895Z,-14.91
2018-12-16T04:10:29.882Z,-14.83
2018-12-16T04:12:58.948Z,-14.71
2018-12-16T04:15:27.879Z,-14.74
2018-12-16T04:17:56.858Z,-14.74
2018-12-16T04:20:25.513Z,-14.77
2018-12-16T04:22:54.226Z,-14.67
2018-12-16T04:25:23.804Z,-14.69
2018-12-16T04:27:52.789Z,-14.68
2018-12-16T04:30:21.587Z,-14.72
2018-12-16T04:32:50.244Z,-14.60
2018-12-16T04:35:19.000Z,-14.49
2018-12-16T04:37:48.132Z,-14.39
2018-12-16T04:40:17.105Z,-14.29
2018-12-16T04:42:45.740Z,-14.18
2018-12-16T04:45:15.361Z,-14.00
2018-12-16T04:47:44.350Z,-13.91
2018-12-16T04:50:13.230Z,-13.81
2018-12-16T04:52:42.590Z,-13.70
2018-12-16T04:55:11.811Z,-13.61
2018-12-16T04:57:40.651Z,-13.58
2018-12-16T05:00:10.223Z,-13.55
2018-12-16T05:02:39.011Z,-13.54
2018-12-16T05:05:07.868Z,-13.57
2018-12-16T05:07:36.862Z,-13.56
2018-12-16T05:10:16.675Z,-13.53
2018-12-16T05:12:45.833Z,-13.64
2018-12-16T05:15:14.752Z,-13.60
2018-12-16T05:17:43.770Z,-13.59
2018-12-16T05:20:12.938Z,-13.54
2018-12-16T05:22:41.918Z,-13.47
2018-12-16T05:25:10.828Z,-13.39
2018-12-16T05:27:39.676Z,-13.32
2018-12-16T05:30:09.118Z,-13.31
2018-12-16T05:32:38.075Z,-13.22
2018-12-16T05:35:06.996Z,-13.20
2018-12-16T05:37:35.730Z,-13.16
2018-12-16T05:40:04.972Z,-13.12
2018-12-16T05:42:33.764Z,-13.12
2018-12-16T05:45:02.800Z,-13.06
2018-12-16T05:47:31.535Z,-13.02
2018-12-16T05:50:01.117Z,-12.99
2018-12-16T05:52:30.211Z,-12.96
2018-12-16T05:54:59.608Z,-12.91
2018-12-16T05:57:28.639Z,-12.83
2018-12-16T05:59:57.725Z,-12.78
2018-12-16T06:02:26.876Z,-12.71
2018-12-16T06:04:56.129Z,-12.64
2018-12-16T06:07:25.107Z,-12.58
2018-12-16T06:09:54.123Z,-12.52
2018-12-16T06:12:23.285Z,-12.54
2018-12-16T06:14:52.312Z,-12.48
2018-12-16T06:17:21.349Z,-12.45
2018-12-16T06:19:50.547Z,-12.41
2018-12-16T06:22:19.300Z,-12.31
2018-12-16T06:24:48.200Z,-12.30
2018-12-16T06:27:17.055Z,-12.27
2018-12-16T06:29:46.271Z,-12.28
2018-12-16T06:32:15.317Z,-12.27
2018-12-16T06:34:44.386Z,-12.28
2018-12-16T06:37:13.246Z,-12.25
2018-12-16T06:39:42.782Z,-12.19
2018-12-16T06:42:11.788Z,-12.14
2018-12-16T06:44:40.531Z,-12.09
2018-12-16T06:47:09.255Z,-12.06
2018-12-16T06:49:37.938Z,-12.00
2018-12-16T06:52:07.108Z,-11.99
2018-12-16T06:54:35.869Z,-11.98
2018-12-16T06:57:04.549Z,-11.94
2018-12-16T06:59:33.301Z,-11.90
2018-12-16T07:02:02.101Z,-11.87
2018-12-16T07:04:30.860Z,-11.80
2018-12-16T07:06:59.850Z,-11.75
2018-12-16T07:09:31.544Z,-11.68
2018-12-16T07:12:00.884Z,-11.63
2018-12-16T07:14:30.152Z,-11.58
2018-12-16T07:16:59.214Z,-11.51
2018-12-16T07:19:28.149Z,-11.46
2018-12-16T07:21:57.043Z,-11.43
2018-12-16T07:24:25.870Z,-11.42
2018-12-16T07:26:54.601Z,-11.40
2018-12-16T07:29:23.589Z,-11.38
2018-12-16T07:31:52.420Z,-11.36
2018-12-16T07:34:21.409Z,-11.36
2018-12-16T07:36:50.316Z,-11.34
2018-12-16T07:39:19.305Z,-11.39
2018-12-16T07:41:48.366Z,-11.40
2018-12-16T07:44:17.211Z,-11.39
2018-12-16T07:46:46.067Z,-11.34
2018-12-16T07:49:15.076Z,-11.32
2018-12-16T07:51:44.077Z,-11.35
2018-12-16T07:54:16.068Z,-11.32
2018-12-16T07:56:44.125Z,-11.28
2018-12-16T07:59:13.018Z,-11.22
2018-12-16T08:01:41.966Z,-11.20
2018-12-16T08:04:10.786Z,-11.12
2018-12-16T08:06:39.700Z,-11.06
2018-12-16T08:09:09.702Z,-11.02
2018-12-16T08:11:38.784Z,-10.95
2018-12-16T08:14:07.705Z,-10.89
2018-12-16T08:16:36.735Z,-10.85
2018-12-16T08:19:07.132Z,-10.79
2018-12-16T08:21:36.072Z,-10.78
2018-12-16T08:24:04.961Z,-10.76
2018-12-16T08:26:33.644Z,-10.76
2018-12-16T08:29:02.539Z,-10.72
2018-12-16T08:31:31.213Z,-10.71
2018-12-16T08:33:59.951Z,-10.62
2018-12-16T08:36:28.717Z,-10.57
2018-12-16T08:38:57.556Z,-10.53
2018-12-16T08:41:26.374Z,-10.51
2018-12-16T08:43:55.069Z,-10.52
2018-12-16T08:46:24.146Z,-10.48
2018-12-16T08:48:53.671Z,-10.42
2018-12-16T08:51:22.505Z,-10.40
2018-12-16T08:53:51.427Z,-10.40
2018-12-16T08:56:20.479Z,-10.39
2018-12-16T08:58:49.365Z,-10.32
2018-12-16T09:01:18.042Z,-10.30
2018-12-16T09:03:47.716Z,-10.26
2018-12-16T09:06:16.426Z,-10.20
2018-12-16T09:08:45.717Z,-10.19
2018-12-16T09:11:14.511Z,-10.20
2018-12-16T09:13:43.281Z,-10.17
2018-12-16T09:16:12.000Z,-10.13
2018-12-16T09:18:40.742Z,-10.11
2018-12-16T09:21:09.577Z,-10.07
2018-12-16T09:23:38.676Z,-10.07
2018-12-16T09:26:07.677Z,-10.02
2018-12-16T09:28:36.360Z,-9.98
2018-12-16T09:31:05.146Z,-10.02
2018-12-16T09:33:34.188Z,-10.01
2018-12-16T09:36:03.048Z,-9.95
2018-12-16T09:38:31.789Z,-9.90
2018-12-16T09:41:00.675Z,-9.94
2018-12-16T09:43:29.417Z,-9.90
2018-12-16T09:45:58.251Z,-9.86
2018-12-16T09:48:28.210Z,-9.88
2018-12-16T09:50:56.954Z,-9.86
2018-12-16T09:53:26.394Z,-9.84
2018-12-16T09:55:55.649Z,-9.79
2018-12-16T09:58:24.418Z,-9.80
2018-12-16T10:00:53.055Z,-9.76
2018-12-16T10:03:22.066Z,-9.73
2018-12-16T10:05:50.866Z,-9.70
2018-12-16T10:08:19.559Z,-9.69
2018-12-16T10:10:48.399Z,-9.69
2018-12-16T10:13:17.135Z,-9.64
2018-12-16T10:15:46.127Z,-9.61
2018-12-16T10:18:14.821Z,-9.59
2018-12-16T10:20:43.702Z,-9.55
2018-12-16T10:23:12.668Z,-9.54
2018-12-16T10:25:41.598Z,-9.56
2018-12-16T10:28:11.506Z,-9.58
2018-12-16T10:30:40.287Z,-9.57
2018-12-16T10:33:09.123Z,-9.56
2018-12-16T10:35:38.015Z,-9.57
2018-12-16T10:38:07.318Z,-9.51
2018-12-16T10:40:36.048Z,-9.45
2018-12-16T10:43:04.817Z,-9.47
2018-12-16T10:45:34.436Z,-9.42
2018-12-16T10:48:03.358Z,-9.39
2018-12-16T10:50:32.119Z,-9.40
2018-12-16T10:53:00.954Z,-9.38
2018-12-16T10:55:29.646Z,-9.39
2018-12-16T10:57:58.490Z,-9.41
2018-12-16T11:00:32.373Z,-9.38
2018-12-16T11:03:01.990Z,-9.41
2018-12-16T11:05:31.024Z,-9.36
2018-12-16T11:07:59.697Z,-9.30
2018-12-16T11:10:28.851Z,-9.26
2018-12-16T11:12:57.926Z,-9.21
2018-12-16T11:15:26.810Z,-9.16
2018-12-16T11:17:55.487Z,-9.10
2018-12-16T11:20:24.302Z,-9.08
2018-12-16T11:22:52.899Z,-9.03
2018-12-16T11:25:21.640Z,-8.97
2018-12-16T11:27:50.396Z,-8.94
2018-12-16T11:30:19.336Z,-8.89
2018-12-16T11:32:48.317Z,-8.89
2018-12-16T11:35:17.082Z,-8.83
2018-12-16T11:37:45.868Z,-8.80
2018-12-16T11:40:14.639Z,-8.84
2018-12-16T11:43:46.655Z,-8.88
2018-12-16T11:46:15.958Z,-8.82
2018-12-16T11:48:44.665Z,-8.84
2018-12-16T11:51:13.724Z,-9.84
2018-12-16T11:53:43.132Z,-8.78
2018-12-16T11:56:11.840Z,-8.76
2018-12-16T11:58:40.651Z,-8.71
2018-12-16T12:01:09.407Z,-8.66
2018-12-16T12:03:38.380Z,-8.64
2018-12-16T12:06:07.096Z,-8.64
2018-12-16T12:08:35.856Z,-8.61
2018-12-16T12:11:04.716Z,-8.59
2018-12-16T12:13:33.336Z,-8.57
2018-12-16T12:16:02.086Z,-8.56
2018-12-16T12:18:31.429Z,-8.55
2018-12-16T12:21:00.486Z,-8.55
2018-12-16T12:23:29.345Z,-8.55
2018-12-16T12:25:58.370Z,-8.59
2018-12-16T12:28:27.533Z,-8.58
2018-12-16T12:30:56.596Z,-8.59
2018-12-16T12:33:25.721Z,-8.59
2018-12-16T12:35:54.647Z,-8.58
2018-12-16T12:38:23.467Z,-8.57
2018-12-16T12:40:52.506Z,-8.63
2018-12-16T12:43:21.221Z,-8.62
2018-12-16T12:45:50.261Z,-8.60
2018-12-16T12:48:19.454Z,-8.60
2018-12-16T12:50:48.272Z,-8.60
2018-12-16T12:53:17.695Z,-8.55
2018-12-16T12:55:46.616Z,-8.49
2018-12-16T12:58:15.702Z,-8.44
2018-12-16T13:00:44.616Z,-8.41
2018-12-16T13:03:13.755Z,-8.48
2018-12-16T13:05:42.811Z,-8.56
2018-12-16T13:08:11.940Z,-8.58
2018-12-16T13:10:41.148Z,-8.62
2018-12-16T13:13:10.441Z,-8.69
2018-12-16T13:15:39.969Z,-8.74
2018-12-16T13:18:09.287Z,-8.79
2018-12-16T13:20:38.317Z,-8.86
2018-12-16T13:23:07.106Z,-8.94
2018-12-16T13:25:47.032Z,-9.06
2018-12-16T13:28:16.265Z,-9.20
2018-12-16T13:30:44.972Z,-9.30
2018-12-16T13:33:14.031Z,-9.42
2018-12-16T13:35:43.149Z,-9.52
2018-12-16T13:38:12.688Z,-10.12
2018-12-16T13:40:41.783Z,-9.65
2018-12-16T13:43:10.767Z,-9.70
2018-12-16T13:45:39.640Z,-9.70
2018-12-16T13:48:08.801Z,-9.65
2018-12-16T13:50:38.020Z,-9.62
2018-12-16T13:53:07.206Z,-9.56
2018-12-16T13:55:40.832Z,-9.48
2018-12-16T13:58:07.261Z,-9.38
2018-12-16T14:00:36.489Z,-9.34
2018-12-16T14:03:05.334Z,-9.25
2018-12-16T14:05:34.338Z,-9.17
2018-12-16T14:08:03.429Z,-9.12
2018-12-16T14:10:32.241Z,-9.03
2018-12-16T14:13:01.239Z,-8.96
2018-12-16T14:15:30.603Z,-8.87
2018-12-16T14:17:59.486Z,-8.81
2018-12-16T14:20:28.635Z,-8.78
2018-12-16T14:22:57.780Z,-8.70
2018-12-16T14:25:26.519Z,-8.66
2018-12-16T14:27:55.689Z,-8.63
2018-12-16T14:30:24.661Z,-8.59
2018-12-16T14:32:53.479Z,-8.56
2018-12-16T14:35:23.006Z,-8.58
2018-12-16T14:37:52.072Z,-8.54
2018-12-16T14:40:21.131Z,-8.52
2018-12-16T14:42:50.169Z,-9.34
2018-12-16T14:45:19.165Z,-8.47
2018-12-16T14:47:48.522Z,-8.45
2018-12-16T14:50:17.562Z,-8.42
2018-12-16T14:52:46.451Z,-8.41
2018-12-16T14:55:16.030Z,-8.39
2018-12-16T14:57:44.967Z,-8.38
2018-12-16T15:00:14.221Z,-8.36
2018-12-16T15:02:43.107Z,-8.38
2018-12-16T15:05:11.953Z,-8.45
2018-12-16T15:07:40.958Z,-8.53
2018-12-16T15:10:11.265Z,-8.67
2018-12-16T15:12:40.250Z,-8.82
2018-12-16T15:15:09.240Z,-8.98
2018-12-16T15:17:42.646Z,-9.02
2018-12-16T15:20:09.703Z,-9.11
2018-12-16T15:22:39.023Z,-9.18
2018-12-16T15:25:08.362Z,-9.29
2018-12-16T15:27:37.205Z,-9.39
2018-12-16T15:30:08.593Z,-9.49
2018-12-16T15:32:37.386Z,-9.53
2018-12-16T15:35:06.635Z,-9.55
2018-12-16T15:37:35.641Z,-9.56
2018-12-16T15:40:06.465Z,-9.55
2018-12-16T15:42:35.362Z,-9.54
2018-12-16T15:45:04.427Z,-9.54
2018-12-16T15:47:33.137Z,-9.54
2018-12-16T15:50:02.248Z,-9.61
2018-12-16T15:52:30.925Z,-9.70
2018-12-16T15:54:59.946Z,-9.77
2018-12-16T15:57:28.705Z,-9.87
2018-12-16T15:59:58.586Z,-9.93
2018-12-16T16:02:27.477Z,-10.01
2018-12-16T16:04:56.554Z,-10.09
2018-12-16T16:07:25.437Z,-10.15
2018-12-16T16:09:54.438Z,-10.19
2018-12-16T16:12:23.233Z,-10.18
2018-12-16T16:14:52.015Z,-10.15
2018-12-16T16:17:20.872Z,-10.10
2018-12-16T16:19:49.729Z,-10.07
2018-12-16T16:22:18.526Z,-10.05
2018-12-16T16:24:47.342Z,-10.07
2018-12-16T16:27:16.902Z,-10.12
2018-12-16T16:29:45.724Z,-10.20
2018-12-16T16:32:14.741Z,-10.27
2018-12-16T16:34:43.570Z,-10.36
2018-12-16T16:37:12.690Z,-10.39
2018-12-16T16:39:41.383Z,-10.46
2018-12-16T16:42:10.263Z,-10.51
2018-12-16T16:44:39.036Z,-10.57
2018-12-16T16:47:07.862Z,-10.62
2018-12-16T16:49:37.616Z,-10.70
2018-12-16T16:52:06.391Z,-10.74
2018-12-16T16:54:35.180Z,-10.80
2018-12-16T16:57:04.043Z,-10.84
2018-12-16T16:59:32.881Z,-10.86
2018-12-16T17:02:01.711Z,-10.88
2018-12-16T17:04:30.642Z,-10.92
2018-12-16T17:06:59.460Z,-10.94
2018-12-16T17:09:28.293Z,-10.98
2018-12-16T17:11:57.562Z,-11.00
2018-12-16T17:14:26.431Z,-11.03
2018-12-16T17:16:55.305Z,-11.05
2018-12-16T17:19:24.110Z,-11.06
2018-12-16T17:21:53.952Z,-11.11
2018-12-16T17:24:22.734Z,-11.14
2018-12-16T17:26:51.541Z,-11.13
2018-12-16T17:29:20.399Z,-11.10
2018-12-16T17:31:49.325Z,-11.04
2018-12-16T17:34:18.262Z,-10.87
2018-12-16T17:36:47.205Z,-10.69
2018-12-16T17:39:16.060Z,-10.58
2018-12-16T17:41:45.367Z,-10.43
2018-12-16T17:44:14.448Z,-10.33
2018-12-16T17:46:43.454Z,-10.24
2018-12-16T17:49:12.875Z,-10.12
2018-12-16T17:51:42.023Z,-10.10
2018-12-16T17:54:10.989Z,-10.10
2018-12-16T17:56:39.935Z,-10.09
2018-12-16T17:59:08.735Z,-10.06
2018-12-16T18:01:37.817Z,-9.95
2018-12-16T18:04:10.304Z,-9.84
2018-12-16T18:06:39.452Z,-9.72
2018-12-16T18:09:09.266Z,-9.64
2018-12-16T18:11:39.746Z,-9.55
2018-12-16T18:14:09.233Z,-9.49
2018-12-16T18:16:38.455Z,-9.49
2018-12-16T18:19:07.856Z,-9.46
2018-12-16T18:21:37.103Z,-9.55
2018-12-16T18:24:06.293Z,-9.50
2018-12-16T18:26:35.673Z,-9.50
2018-12-16T18:29:04.890Z,-9.57
2018-12-16T18:31:34.347Z,-9.54
2018-12-16T18:34:03.170Z,-9.45
2018-12-16T18:36:32.159Z,-9.33
2018-12-16T18:39:01.186Z,-9.26
2018-12-16T18:41:30.060Z,-9.21
2018-12-16T18:43:59.266Z,-9.16
2018-12-16T18:46:28.048Z,-9.09
2018-12-16T18:48:56.994Z,-9.05
2018-12-16T18:54:00.704Z,-8.90
2018-12-16T18:56:29.668Z,-8.87
2018-12-16T18:58:58.886Z,-8.86
2018-12-16T19:01:28.122Z,-8.89
2018-12-16T19:03:57.164Z,-8.83
2018-12-16T19:06:26.602Z,-8.79
2018-12-16T19:08:56.686Z,-8.76
2018-12-16T19:11:25.786Z,-8.70
2018-12-16T19:13:55.039Z,-8.66
2018-12-16T19:16:25.439Z,-8.68
2018-12-16T19:18:55.218Z,-8.64
2018-12-16T19:21:24.545Z,-8.62
2018-12-16T19:23:53.955Z,-8.57
2018-12-16T19:26:23.214Z,-8.52
2018-12-16T19:28:52.587Z,-8.52
2018-12-16T19:31:21.925Z,-8.52
2018-12-16T19:33:51.432Z,-8.50
2018-12-16T19:36:20.794Z,-8.42
2018-12-16T19:38:50.058Z,-8.35
2018-12-16T19:41:19.426Z,-8.32
2018-12-16T19:43:48.669Z,-8.28
2018-12-16T19:46:17.954Z,-8.27
2018-12-16T19:48:47.396Z,-8.22
2018-12-16T19:51:17.516Z,-8.19
2018-12-16T19:53:47.063Z,-8.20
2018-12-16T19:56:16.929Z,-8.19
2018-12-16T19:58:46.376Z,-8.15
2018-12-16T20:01:15.784Z,-8.13
2018-12-16T20:03:50.057Z,-8.08
2018-12-16T20:06:24.524Z,-8.05
2018-12-16T20:08:53.883Z,-8.10
2018-12-16T20:11:23.131Z,-8.11
2018-12-16T20:13:52.394Z,-8.12
2018-12-16T20:16:21.661Z,-8.07
2018-12-16T20:18:50.965Z,-8.04
2018-12-16T20:21:20.388Z,-7.99
2018-12-16T20:23:50.048Z,-7.98
2018-12-16T20:26:19.531Z,-7.99
2018-12-16T20:28:48.855Z,-8.01
2018-12-16T20:31:18.250Z,-7.97
2018-12-16T20:33:47.499Z,-7.92
2018-12-16T20:36:16.814Z,-7.92
2018-12-16T20:38:46.337Z,-7.86
2018-12-16T20:41:15.478Z,-7.88
2018-12-16T20:43:45.414Z,-7.86
2018-12-16T20:46:14.888Z,-7.85
2018-12-16T20:48:44.497Z,-7.88
2018-12-16T20:51:14.177Z,-7.83
2018-12-16T20:53:43.835Z,-7.81
2018-12-16T20:56:13.224Z,-7.85
2018-12-16T20:58:42.349Z,-7.82
2018-12-16T21:01:11.662Z,-7.85
2018-12-16T21:03:41.039Z,-7.81
2018-12-16T21:06:10.570Z,-7.77
2018-12-16T21:08:40.036Z,-7.79
2018-12-16T21:11:14.797Z,-7.71
2018-12-16T21:13:48.860Z,-7.67
2018-12-16T21:16:22.771Z,-7.62
2018-12-16T21:18:51.686Z,-7.56
2018-12-16T21:21:20.723Z,-7.52
2018-12-16T21:23:49.762Z,-7.54
2018-12-16T21:26:18.577Z,-7.53
2018-12-16T21:28:47.316Z,-7.57
2018-12-16T21:31:16.271Z,-7.57
2018-12-16T21:33:45.144Z,-7.51
2018-12-16T21:36:14.445Z,-7.64
2018-12-16T21:38:43.752Z,-7.40
2018-12-16T21:41:12.646Z,-7.36
2018-12-16T21:43:41.443Z,-7.40
2018-12-16T21:46:10.532Z,-7.38
2018-12-16T21:48:39.626Z,-7.32
2018-12-16T21:51:08.714Z,-7.29
2018-12-16T21:53:38.261Z,-7.25
2018-12-16T21:56:06.971Z,-7.22
2018-12-16T21:58:35.907Z,-7.22
2018-12-16T22:01:04.781Z,-7.20
2018-12-16T22:03:34.619Z,-7.15
2018-12-16T22:06:03.353Z,-7.13
2018-12-16T22:08:32.503Z,-7.15
2018-12-16T22:11:01.350Z,-7.16
2018-12-16T22:13:30.227Z,-7.14
2018-12-16T22:15:59.131Z,-7.13
2018-12-16T22:18:27.999Z,-7.09
2018-12-16T22:20:57.146Z,-7.10
2018-12-16T22:23:26.263Z,-7.09
2018-12-16T22:25:55.313Z,-7.08
2018-12-16T22:28:24.378Z,-7.05
2018-12-16T22:30:53.703Z,-7.03
2018-12-16T22:33:22.485Z,-7.01
2018-12-16T22:35:51.423Z,-7.09
2018-12-16T22:38:21.690Z,-7.08
2018-12-16T22:40:50.497Z,-7.11
2018-12-16T22:43:19.461Z,-7.07
2018-12-16T22:45:49.146Z,-7.06
2018-12-16T22:48:18.113Z,-7.04
2018-12-16T22:50:47.146Z,-7.05
2018-12-16T22:53:15.903Z,-7.03
2018-12-16T22:55:44.679Z,-6.99
2018-12-16T22:58:13.741Z,-6.97
2018-12-16T23:00:48.328Z,-6.96
2018-12-16T23:03:17.602Z,-6.97
2018-12-16T23:05:46.644Z,-6.92
2018-12-16T23:08:16.170Z,-6.91
2018-12-16T23:10:45.940Z,-6.89
2018-12-16T23:13:15.601Z,-6.86
2018-12-16T23:15:44.598Z,-6.85
2018-12-16T23:18:13.340Z,-6.81
2018-12-16T23:20:42.815Z,-6.84
2018-12-16T23:23:11.802Z,-6.81
2018-12-16T23:25:40.622Z,-6.80
2018-12-16T23:28:09.606Z,-6.82
2018-12-16T23:30:38.350Z,-6.78
2018-12-16T23:33:07.177Z,-6.74
2018-12-16T23:35:35.869Z,-6.76
2018-12-16T23:38:04.590Z,-6.70
2018-12-16T23:40:33.393Z,-6.63
2018-12-16T23:43:02.328Z,-6.67
2018-12-16T23:45:31.288Z,-6.66
2018-12-16T23:48:00.575Z,-6.63
2018-12-16T23:50:29.408Z,-6.58
2018-12-16T23:52:58.534Z,-6.54
2018-12-16T23:55:27.208Z,-6.37
2018-12-16T23:58:00.986Z,-6.22
